Thunder radar more information blitzortung!


Radar de pluja more information rain snow radar


Visita la nostra xarxa de llocs de meteo:

Template documentation
and downloads

And another site



No particular awareness of the weather is required.    There are no Weather-warnings

Pagina Historial Weather Underground text

Diari Resum Octubre 28, 2017 Unitats:  Mètric    Imperial   Tant
« Previous Dia
SegĂźent Dia »
Diari Setmana Mensual Anual Personalitzada
  Maxima: Minima: Media:
Temperatura: -17.8 °C -11.2 °C -8.1 °C
Punt de rosada: -17.8 °C -13.1 °C -11.9 °C
Humitat: Humidity % 50 % 65 %
Wind Speed: 0 km/h 0 km/h 7.4 km/h
RĂ fegues de vent: 0 km/h - -
Vent:- - SSE
Pression baro: 0 hPa 34567.7 hPa -
Precipitacions: 0 mm    
Historical Graphs
 
 
Dades de taula per Octubre 28, 2017
Temps Temperatura Punt de rosada Pression baro Vent Wind Speed RĂ fegues de vent Humitat Rainfall Rate (Hourly)
-17.8 °C -17.8 °C 0 hPa Calm     Humidity % 0 mm
00:00 -10.1 °C -12.3 °C 34669.3 hPa Calm   5.1 km/h 77 % 0 mm
00:03 -8.6 °C -9.9 °C 34669.3 hPa Calm     85 % 0 mm
00:08 -8.6 °C -10.1 °C 34669.3 hPa ESE 4.2 km/h 4.2 km/h 85 % 0 mm
00:10 -10.2 °C -12.4 °C 34669.3 hPa WNW 2.6 km/h 2.6 km/h 77 % 0 mm
00:13 -8.7 °C -10.1 °C 34669.3 hPa NE 4.2 km/h 4.2 km/h 85 % 0 mm
00:18 -8.7 °C -10.1 °C 34669.3 hPa ENE 4.2 km/h 4.2 km/h 85 % 0 mm
00:20 -10.3 °C -12.4 °C 34669.3 hPa NW 2.6 km/h 5.1 km/h 78 % 0 mm
00:23 -8.7 °C -10.1 °C 34669.3 hPa NE 3.1 km/h   86 % 0 mm
00:28 -8.7 °C -10.1 °C 34669.3 hPa WSW 6 km/h 6 km/h 85 % 0 mm
00:30 -10.3 °C -12.4 °C 34669.3 hPa NW 5.1 km/h 7.7 km/h 77 % 0 mm
00:33 -8.7 °C -10.1 °C 34669.3 hPa Calm     86 % 0 mm
00:38 -8.7 °C -10.1 °C 34669.3 hPa Calm     86 % 0 mm
00:40 -10.3 °C -12.4 °C 34669.3 hPa NW 5.1 km/h 10.3 km/h 77 % 0 mm
00:43 -8.7 °C -9.9 °C 34669.3 hPa Calm     87 % 0 mm
00:50 -10.3 °C -12.6 °C 34669.3 hPa NNW 2.6 km/h 7.7 km/h 77 % 0 mm
01:00 -10.3 °C -12.4 °C 34669.3 hPa NNE 2.6 km/h 5.1 km/h 77 % 0 mm
01:10 -10.4 °C -12.6 °C 34669.3 hPa NNW 2.6 km/h 5.1 km/h 77 % 0 mm
01:20 -10.5 °C -12.7 °C 34669.3 hPa WSW 5.1 km/h 5.1 km/h 77 % 0 mm
01:30 -10.5 °C -12.7 °C 34669.3 hPa WSW 2.6 km/h 5.1 km/h 77 % 0 mm
01:40 -10.6 °C -12.6 °C 34669.3 hPa WNW 2.6 km/h 10.3 km/h 78 % 0 mm
01:50 -10.5 °C -12.7 °C 34669.3 hPa NNE 2.6 km/h 7.7 km/h 77 % 0 mm
02:00 -10.5 °C -12.7 °C 34669.3 hPa NNE 2.6 km/h 5.1 km/h 77 % 0 mm
02:10 -10.6 °C -12.7 °C 34669.3 hPa North 2.6 km/h 5.1 km/h 77 % 0 mm
02:20 -10.7 °C -12.8 °C 34703.1 hPa North 2.6 km/h 5.1 km/h 78 % 0 mm
02:30 -10.8 °C -12.9 °C 34669.3 hPa NE 5.1 km/h 5.1 km/h 78 % 0 mm
02:40 -10.9 °C -12.9 °C 34669.3 hPa NNE 2.6 km/h 7.7 km/h 78 % 0 mm
02:50 -10.9 °C -13 °C 34669.3 hPa North 2.6 km/h 5.1 km/h 78 % 0 mm
03:00 -11.1 °C -13 °C 34703.1 hPa NNE 2.6 km/h 7.7 km/h 79 % 0 mm
03:10 -11.1 °C -13.1 °C 34703.1 hPa North 2.6 km/h 2.6 km/h 79 % 0 mm
03:20 -11.2 °C -13.1 °C 34703.1 hPa Calm   2.6 km/h 79 % 0 mm
03:30 -11.2 °C -13 °C 34740.4 hPa Calm   5.1 km/h 80 % 0 mm
03:40 -11.2 °C -13.1 °C 34740.4 hPa North 2.6 km/h 5.1 km/h 79 % 0 mm
03:50 -11.1 °C -13 °C 34740.4 hPa NNW 5.1 km/h 7.7 km/h 79 % 0 mm
04:00 -11.1 °C -12.9 °C 34740.4 hPa Calm   5.1 km/h 80 % 0 mm
04:10 -10.8 °C -12.8 °C 34740.4 hPa WNW 5.1 km/h 5.1 km/h 79 % 0 mm
04:20 -10.8 °C -12.7 °C 34740.4 hPa WNW 2.6 km/h 5.1 km/h 79 % 0 mm
04:30 -10.4 °C -12.4 °C 34740.4 hPa West 2.6 km/h 5.1 km/h 79 % 0 mm
04:40 -10.1 °C -12.2 °C 34740.4 hPa NNW 5.1 km/h 10.3 km/h 78 % 0 mm
04:50 -9.7 °C -11.9 °C 34740.4 hPa NNE 2.6 km/h 7.7 km/h 77 % 0 mm
05:00 -9.8 °C -12.2 °C 34740.4 hPa NNE 7.7 km/h 7.7 km/h 76 % 0 mm
05:10 -9.8 °C -12.2 °C 34740.4 hPa NNE 5.1 km/h 10.3 km/h 76 % 0 mm
05:20 -9.5 °C -11.8 °C 34703.1 hPa NE 5.1 km/h 7.7 km/h 76 % 0 mm
05:30 -9.4 °C -11.9 °C 34703.1 hPa NNE 5.1 km/h 10.3 km/h 75 % 0 mm
10:36 -9.3 °C -11.9 °C 34703.1 hPa North 11.9 km/h 11.9 km/h 74 % 0 mm
10:37 -9.3 °C -11.9 °C 34703.1 hPa North 11.9 km/h 11.9 km/h 74 % 0 mm
10:38 -9.3 °C -11.8 °C 34703.1 hPa NNE 6 km/h 6 km/h 74 % 0 mm
10:43 -9 °C -11.6 °C 34740.4 hPa ENE 6 km/h 6 km/h 74 % 0 mm
10:48 -9 °C -11.7 °C 34740.4 hPa NE 9.8 km/h 9.8 km/h 73 % 0 mm
10:53 -9 °C -11.7 °C 34740.4 hPa NE 9 km/h 9 km/h 73 % 0 mm
10:58 -8.8 °C -11.6 °C 34703.1 hPa NNE 14.5 km/h 14.5 km/h 72 % 0 mm
11:03 -9 °C -11.9 °C 34703.1 hPa NNE 11.9 km/h 11.9 km/h 71 % 0 mm
11:08 -8.8 °C -11.6 °C 34703.1 hPa NE 9 km/h 9 km/h 72 % 0 mm
11:13 -8.8 °C -11.6 °C 34740.4 hPa ENE 11.6 km/h 11.6 km/h 72 % 0 mm
11:14 -8.7 °C -11.6 °C 34740.4 hPa NE 11.9 km/h 11.9 km/h 71 % 0 mm
11:19 -8.7 °C -11.6 °C 34740.4 hPa ENE 15 km/h 15 km/h 71 % 0 mm
11:24 -8.7 °C -11.7 °C 34740.4 hPa ENE 15 km/h 15 km/h 70 % 0 mm
11:29 -8.7 °C -11.7 °C 34740.4 hPa NNE 16.6 km/h 16.6 km/h 70 % 0 mm
11:34 -8.7 °C -11.8 °C 34740.4 hPa ENE 15 km/h 15 km/h 70 % 0 mm
11:39 -8.6 °C -11.7 °C 34740.4 hPa ENE 9 km/h 9 km/h 70 % 0 mm
11:44 -8.6 °C -11.6 °C 34740.4 hPa East 15 km/h 15 km/h 70 % 0 mm
11:49 -8.5 °C -11.7 °C 34740.4 hPa NNE 11.9 km/h 11.9 km/h 69 % 0 mm
11:54 -8.3 °C -11.4 °C 34740.4 hPa North 9 km/h 9 km/h 69 % 0 mm
11:59 -8.2 °C -11.5 °C 34740.4 hPa NNE 9.8 km/h 9.8 km/h 68 % 0 mm
12:04 -8.2 °C -11.6 °C 34740.4 hPa NNE 15 km/h 15 km/h 68 % 0 mm
12:09 -8.2 °C -11.7 °C 34740.4 hPa North 11.9 km/h 11.9 km/h 67 % 0 mm
12:14 -8.1 °C -11.6 °C 34740.4 hPa NNE 11.9 km/h 11.9 km/h 67 % 0 mm
12:19 -8.1 °C -11.6 °C 34740.4 hPa NNE 17.9 km/h 17.9 km/h 67 % 0 mm
12:24 -7.9 °C -11.4 °C 34740.4 hPa NNW 8 km/h 8 km/h 67 % 0 mm
12:29 -7.9 °C -11.3 °C 34740.4 hPa NE 11.9 km/h 11.9 km/h 67 % 0 mm
12:34 -7.9 °C -11.5 °C 34740.4 hPa ENE 15 km/h 15 km/h 66 % 0 mm
12:39 -7.9 °C -11.5 °C 34740.4 hPa NNE 11.9 km/h 11.9 km/h 66 % 0 mm
12:44 -7.8 °C -11.3 °C 34740.4 hPa NNE 11.9 km/h 11.9 km/h 66 % 0 mm
12:49 -7.7 °C -11.4 °C 34740.4 hPa NE 9 km/h 9 km/h 65 % 0 mm
12:54 -7.6 °C -11.3 °C 34703.1 hPa North 9 km/h 9 km/h 65 % 0 mm
12:59 -7.4 °C -11.1 °C 34703.1 hPa ENE 11.9 km/h 11.9 km/h 65 % 0 mm
13:04 -7.5 °C -11.3 °C 34703.1 hPa NNE 11.9 km/h 11.9 km/h 64 % 0 mm
13:09 -7.4 °C -11.3 °C 34703.1 hPa ENE 11.9 km/h 11.9 km/h 64 % 0 mm
13:10 -7.4 °C -11.3 °C 34703.1 hPa ENE 11.9 km/h 11.9 km/h 64 % 0 mm
13:15 -7.2 °C -11.2 °C 34703.1 hPa ENE 11.9 km/h 11.9 km/h 63 % 0 mm
13:20 -7.1 °C -11.1 °C 34703.1 hPa North 9 km/h 9 km/h 63 % 0 mm
13:25 -7.2 °C -11.3 °C 34703.1 hPa NE 11.9 km/h 11.9 km/h 62 % 0 mm
13:30 -7.1 °C -11.4 °C 34703.1 hPa NE 6.8 km/h 6.8 km/h 61 % 0 mm
13:35 -7.1 °C -11.3 °C 34703.1 hPa NE 11.9 km/h 11.9 km/h 61 % 0 mm
13:40 -6.9 °C -11.1 °C 34669.3 hPa NNE 9 km/h 9 km/h 62 % 0 mm
13:45 -6.9 °C -11.2 °C 34669.3 hPa NE 9 km/h 9 km/h 61 % 0 mm
13:50 -6.9 °C -11.3 °C 34669.3 hPa ENE 7.6 km/h 7.6 km/h 60 % 0 mm
13:55 -6.8 °C -11.2 °C 34669.3 hPa NNE 7.6 km/h 7.6 km/h 61 % 0 mm
14:00 -6.7 °C -11 °C 34669.3 hPa NNE 11.9 km/h 11.9 km/h 61 % 0 mm
14:05 -6.6 °C -11.1 °C 34669.3 hPa NNE 5.1 km/h 5.1 km/h 60 % 0 mm
14:10 -6.7 °C -11.2 °C 34669.3 hPa ESE 6 km/h 6 km/h 60 % 0 mm
14:15 -6.6 °C -11.5 °C 34669.3 hPa NE 9 km/h 9 km/h 57 % 0 mm
14:20 -6.6 °C -11.4 °C 34669.3 hPa ESE 9 km/h 9.8 km/h 57 % 0 mm
14:25 -6.4 °C -11.3 °C 34669.3 hPa SSE 9 km/h 9 km/h 57 % 0 mm
14:30 -6.3 °C -11.2 °C 34669.3 hPa NNW 5.6 km/h 5.6 km/h 57 % 0 mm
14:35 -6.3 °C -11.2 °C 34669.3 hPa NNE 4.2 km/h   57 % 0 mm
14:40 -6.2 °C -11.2 °C 34669.3 hPa West 3.7 km/h 3.7 km/h 57 % 0 mm
14:45 -6.2 °C -10.9 °C 34669.3 hPa NW 9 km/h 9 km/h 58 % 0 mm
14:50 -6.1 °C -11.3 °C 34669.3 hPa WSW 6 km/h 6 km/h 55 % 0 mm
14:55 -6 °C -11.1 °C 34635.4 hPa SW 3.1 km/h   56 % 0 mm
15:00 -5.8 °C -11 °C 34635.4 hPa South 12.7 km/h 12.7 km/h 55 % 0 mm
15:05 -5.8 °C -11.4 °C 34635.4 hPa South 6 km/h 6 km/h 53 % 0 mm
15:10 -5.7 °C -10.9 °C 34635.4 hPa South 15 km/h 15 km/h 55 % 0 mm
15:15 -5.6 °C -11.3 °C 34635.4 hPa SSE 15 km/h 15 km/h 52 % 0 mm
15:20 -5.8 °C -11.6 °C 34635.4 hPa SW 6 km/h 6 km/h 52 % 0 mm
15:25 -5.6 °C -11.2 °C 34635.4 hPa ESE 9 km/h 9 km/h 53 % 0 mm
15:30 -5.4 °C -11 °C 34635.4 hPa West 9 km/h 9 km/h 53 % 0 mm
15:35 -5.6 °C -11.3 °C 34635.4 hPa East 6.3 km/h 6.3 km/h 52 % 0 mm
15:40 -5.5 °C -11.1 °C 34635.4 hPa South 6 km/h 6 km/h 53 % 0 mm
15:45 -5.4 °C -11 °C 34635.4 hPa SW 9 km/h 9 km/h 53 % 0 mm
15:50 -5.4 °C -11.2 °C 34635.4 hPa ESE 9 km/h 9 km/h 52 % 0 mm
15:55 -5.4 °C -11.2 °C 34635.4 hPa SW 9.8 km/h 9.8 km/h 52 % 0 mm
16:00 -5.3 °C -11.1 °C 34635.4 hPa WSW 6.8 km/h 6.8 km/h 52 % 0 mm
16:05 -5.6 °C -11.7 °C 34635.4 hPa ESE 9 km/h 9 km/h 50 % 0 mm
16:10 -5.7 °C -11.6 °C 34635.4 hPa ENE 9 km/h 9 km/h 51 % 0 mm
16:15 -5.7 °C -11.6 °C 34635.4 hPa ESE 15.3 km/h 15.3 km/h 51 % 0 mm
16:20 -5.7 °C -11.6 °C 34635.4 hPa NE 3.1 km/h 3.1 km/h 51 % 0 mm
16:25 -5.3 °C -11.2 °C 34635.4 hPa South 10.3 km/h   51 % 0 mm
16:30 -5.2 °C -10.9 °C 34635.4 hPa SW 9 km/h 9 km/h 52 % 0 mm
16:35 -5.1 °C -11.1 °C 34635.4 hPa SSE 6 km/h   51 % 0 mm
16:40 -5.4 °C -11.4 °C 34601.5 hPa East 6 km/h 6 km/h 50 % 0 mm
16:45 -5.6 °C -11.6 °C 34601.5 hPa SE 9 km/h 9 km/h 50 % 0 mm
16:50 -5.4 °C -11.2 °C 34601.5 hPa WSW 9 km/h 9 km/h 52 % 0 mm
16:55 -5.2 °C -11.2 °C 34601.5 hPa SSW 9 km/h 9 km/h 51 % 0 mm
17:00 -5.1 °C -10.8 °C 34601.5 hPa SSE 7.6 km/h 7.6 km/h 52 % 0 mm
17:05 -5.4 °C -11.5 °C 34601.5 hPa ESE 9 km/h 9 km/h 50 % 0 mm
17:10 -5.7 °C -11.6 °C 34601.5 hPa East 15 km/h 15 km/h 51 % 0 mm
17:15 -5.8 °C -11.5 °C 34601.5 hPa East 15 km/h 15 km/h 52 % 0 mm
17:20 -5.9 °C -11.5 °C 34601.5 hPa ESE 11.9 km/h 11.9 km/h 53 % 0 mm
17:25 -6 °C -11.6 °C 34601.5 hPa ESE 15 km/h 15 km/h 53 % 0 mm
17:30 -5.9 °C -11.2 °C 34601.5 hPa SSW 9 km/h 9 km/h 55 % 0 mm
17:35 -6 °C -11.1 °C 34601.5 hPa ESE 9 km/h 9 km/h 56 % 0 mm
17:40 -6 °C -11.4 °C 34601.5 hPa ESE 17.9 km/h 17.9 km/h 54 % 0 mm
17:45 -5.8 °C -11.2 °C 34601.5 hPa SW 11.9 km/h 11.9 km/h 54 % 0 mm
17:50 -5.8 °C -11.4 °C 34601.5 hPa South 20.9 km/h 20.9 km/h 53 % 0 mm
17:55 -5.9 °C -11.4 °C 34635.4 hPa SW 12.7 km/h 12.7 km/h 53 % 0 mm
18:00 -5.9 °C -11.4 °C 34635.4 hPa SW 9 km/h 9 km/h 53 % 0 mm
18:05 -5.9 °C -11.5 °C 34635.4 hPa WSW 6 km/h 6 km/h 53 % 0 mm
18:10 -6 °C -11.6 °C 34635.4 hPa WSW 11.9 km/h 11.9 km/h 53 % 0 mm
18:15 -6.1 °C -11.6 °C 34635.4 hPa WSW 6.3 km/h 6.3 km/h 53 % 0 mm
18:20 -6.1 °C -11.6 °C 34635.4 hPa WSW 6 km/h 6 km/h 53 % 0 mm
18:25 -6.2 °C -11.6 °C 34601.5 hPa West 11.9 km/h 11.9 km/h 54 % 0 mm
18:30 -6.4 °C -11.7 °C 34601.5 hPa SW 11.9 km/h 11.9 km/h 54 % 0 mm
18:35 -6.6 °C -11.9 °C 34601.5 hPa SW 6.8 km/h 6.8 km/h 54 % 0 mm
18:40 -6.7 °C -11.8 °C 34601.5 hPa WSW 6 km/h 6.3 km/h 55 % 0 mm
18:45 -6.8 °C -12 °C 34601.5 hPa WSW 6 km/h 6 km/h 55 % 0 mm
18:50 -7 °C -12 °C 34601.5 hPa SW 6 km/h 6 km/h 56 % 0 mm
18:55 -7.1 °C -12.1 °C 34601.5 hPa SW 6.8 km/h 6.8 km/h 56 % 0 mm
19:00 -7.3 °C -12.1 °C 34601.5 hPa West 9 km/h 9 km/h 57 % 0 mm
19:05 -7.4 °C -12.2 °C 34601.5 hPa SW 6.3 km/h 6.3 km/h 57 % 0 mm
19:10 -7.5 °C -12.3 °C 34635.4 hPa SW 6 km/h 6 km/h 57 % 0 mm
19:15 -7.6 °C -12.4 °C 34635.4 hPa WSW 6 km/h 6.3 km/h 57 % 0 mm
19:20 -7.7 °C -12.3 °C 34635.4 hPa WSW 9 km/h 9 km/h 58 % 0 mm
19:25 -7.7 °C -12.4 °C 34635.4 hPa SW 6.3 km/h 6.3 km/h 58 % 0 mm
19:30 -7.8 °C -12.5 °C 34635.4 hPa SW 9 km/h 9 km/h 58 % 0 mm
19:35 -7.9 °C -12.6 °C 34635.4 hPa WSW 6.3 km/h 6.3 km/h 58 % 0 mm
19:40 -7.9 °C -12.4 °C 34635.4 hPa SW 6.8 km/h 6.8 km/h 59 % 0 mm
19:45 -7.9 °C -12.4 °C 34635.4 hPa SW 6.8 km/h 6.8 km/h 59 % 0 mm
19:50 -8 °C -12.5 °C 34635.4 hPa WSW 6 km/h 6 km/h 59 % 0 mm
19:55 -8.1 °C -12.4 °C 34635.4 hPa WSW 6 km/h 6 km/h 60 % 0 mm
20:00 -8.1 °C -12.4 °C 34635.4 hPa West 6 km/h 6 km/h 60 % 0 mm
20:05 -8.2 °C -12.6 °C 34635.4 hPa WSW 6 km/h 6.3 km/h 60 % 0 mm
20:10 -8.2 °C -12.4 °C 34635.4 hPa WSW 6.8 km/h 6.8 km/h 61 % 0 mm
20:15 -8.3 °C -12.5 °C 34635.4 hPa WSW 6.3 km/h 6.3 km/h 61 % 0 mm
20:20 -8.3 °C -12.6 °C 34635.4 hPa SW 9 km/h 9 km/h 61 % 0 mm
20:25 -8.3 °C -12.4 °C 34635.4 hPa West 6 km/h 6 km/h 62 % 0 mm
20:30 -8.3 °C -12.4 °C 34635.4 hPa SW 6 km/h 6 km/h 62 % 0 mm
20:35 -8.4 °C -12.3 °C 34635.4 hPa WSW 6 km/h 6 km/h 63 % 0 mm
20:40 -8.4 °C -12.3 °C 34635.4 hPa SW 7.6 km/h 7.6 km/h 64 % 0 mm
20:45 -8.4 °C -12.3 °C 34635.4 hPa SW 15 km/h 15 km/h 64 % 0 mm
20:50 -8.4 °C -12.1 °C 34635.4 hPa SW 6 km/h 6 km/h 65 % 0 mm
20:55 -8.5 °C -12.2 °C 34635.4 hPa WSW 7.6 km/h 7.6 km/h 65 % 0 mm
21:00 -8.6 °C -12.2 °C 34635.4 hPa SW 6.3 km/h 6.3 km/h 65 % 0 mm
21:05 -8.6 °C -12.1 °C 34635.4 hPa WSW 6 km/h 6 km/h 66 % 0 mm
21:10 -8.6 °C -12.2 °C 34635.4 hPa WSW 6.3 km/h 6.3 km/h 66 % 0 mm
21:15 -8.6 °C -12.1 °C 34635.4 hPa West 6 km/h 6 km/h 67 % 0 mm
21:20 -8.6 °C -12.1 °C 34635.4 hPa WSW 6.3 km/h 6.3 km/h 67 % 0 mm
21:25 -8.6 °C -12.1 °C 34601.5 hPa WSW 6 km/h 6 km/h 67 % 0 mm
21:30 -8.7 °C -11.9 °C 34601.5 hPa WSW 3.1 km/h 3.7 km/h 68 % 0 mm
21:35 -8.7 °C -12 °C 34601.5 hPa SW 6 km/h 6 km/h 68 % 0 mm
21:40 -8.8 °C -12.1 °C 34635.4 hPa SW 6 km/h 6 km/h 68 % 0 mm
21:45 -8.9 °C -12.1 °C 34635.4 hPa SW 6 km/h 6 km/h 69 % 0 mm
21:50 -8.9 °C -12.1 °C 34635.4 hPa SW 6 km/h 6 km/h 69 % 0 mm
21:55 -8.9 °C -12.1 °C 34601.5 hPa SW 6 km/h 6 km/h 69 % 0 mm
22:00 -8.9 °C -12.1 °C 34601.5 hPa SW 6 km/h 6 km/h 69 % 0 mm
22:05 -9 °C -12.2 °C 34601.5 hPa SW 6 km/h 6 km/h 69 % 0 mm
22:10 -9.1 °C -12.2 °C 34635.4 hPa WSW 6 km/h 6 km/h 69 % 0 mm
22:15 -9.1 °C -12.3 °C 34635.4 hPa WSW 6 km/h 6 km/h 69 % 0 mm
22:20 -9.2 °C -12.2 °C 34635.4 hPa Calm     70 % 0 mm
22:25 -9.2 °C -12.3 °C 34635.4 hPa SW 6 km/h 6 km/h 70 % 0 mm
22:30 -9.3 °C -12.3 °C 34635.4 hPa WSW 6 km/h 6 km/h 70 % 0 mm
22:35 -9.4 °C -12.4 °C 34635.4 hPa WSW 4.2 km/h 4.2 km/h 70 % 0 mm
22:40 -9.4 °C -12.4 °C 34601.5 hPa WSW 3.1 km/h 3.1 km/h 70 % 0 mm
22:45 -9.3 °C -12.3 °C 34601.5 hPa WSW 6 km/h 6 km/h 70 % 0 mm
22:50 -9.3 °C -12.3 °C 34601.5 hPa West 6 km/h 6 km/h 70 % 0 mm
22:55 -9.2 °C -12.3 °C 34567.7 hPa WSW 3.1 km/h 3.1 km/h 70 % 0 mm
23:00 -9.3 °C -12.3 °C 34567.7 hPa Calm     70 % 0 mm
23:05 -9.3 °C -12.4 °C 34567.7 hPa West 11.9 km/h 11.9 km/h 69 % 0 mm
23:10 -9.3 °C -12.6 °C 34601.5 hPa WSW 6.8 km/h 6.8 km/h 68 % 0 mm
23:15 -9.4 °C -12.7 °C 34601.5 hPa SSW 6 km/h 6 km/h 68 % 0 mm
23:20 -9.6 °C -12.8 °C 34601.5 hPa SW 6 km/h 6 km/h 68 % 0 mm
23:25 -9.7 °C -12.9 °C 34601.5 hPa SW 6 km/h 6 km/h 68 % 0 mm
23:30 -9.7 °C -12.9 °C 34601.5 hPa SW 3.7 km/h 3.7 km/h 68 % 0 mm
23:35 -9.8 °C -13 °C 34601.5 hPa SW 5.6 km/h 5.6 km/h 68 % 0 mm
23:40 -9.8 °C -13.1 °C 34601.5 hPa WSW 3.1 km/h 3.1 km/h 68 % 0 mm
23:45 -9.9 °C -13.1 °C 34601.5 hPa Calm     68 % 0 mm
23:50 -10 °C -13.1 °C 34601.5 hPa ENE 3.1 km/h 3.1 km/h 69 % 0 mm
23:55 -10.1 °C -13.1 °C 34601.5 hPa ENE 6 km/h 6 km/h 70 % 0 mm
Meteo Sesrovires
Elogis d' Weather Underground - 1.5 mb

Guio original per  Jim McMurry - jmcmurry@mwt.net Adaptat per a la plantilla per  Wim van der Kuil - Leuven-Template.eu

Trobareu la nostra informacio del temps tambe a:

Weather Underground

AWEKAS